createdAt,value
2017-10-29T00:01:59.808Z,62.20
2017-10-29T00:04:28.074Z,62.10
2017-10-29T00:06:56.358Z,62.40
2017-10-29T00:09:24.625Z,62.30
2017-10-29T00:11:52.909Z,62.10
2017-10-29T00:14:22.199Z,62.20
2017-10-29T00:16:50.477Z,62.30
2017-10-29T00:19:18.747Z,62.30
2017-10-29T00:21:48.002Z,62.40
2017-10-29T00:24:15.502Z,62.30
2017-10-29T00:26:43.790Z,62.10
2017-10-29T00:29:12.061Z,62.30
2017-10-29T00:31:40.350Z,62.20
2017-10-29T00:34:08.821Z,62.20
2017-10-29T00:36:37.098Z,62.30
2017-10-29T00:39:04.598Z,62.30
2017-10-29T00:41:32.123Z,62.20
2017-10-29T00:43:59.637Z,62.30
2017-10-29T00:46:27.165Z,62.20
2017-10-29T00:48:54.662Z,62.20
2017-10-29T00:51:22.206Z,62.20
2017-10-29T00:53:49.702Z,62.10
2017-10-29T00:56:17.197Z,62.10
2017-10-29T00:58:44.714Z,62.30
2017-10-29T01:01:12.214Z,62.10
2017-10-29T01:03:39.734Z,62.00
2017-10-29T01:06:07.238Z,62.10
2017-10-29T01:08:34.766Z,62.10
2017-10-29T01:11:03.222Z,62.10
2017-10-29T01:13:30.742Z,62.00
2017-10-29T01:15:58.247Z,62.10
2017-10-29T01:18:25.762Z,62.20
2017-10-29T01:20:53.262Z,62.10
2017-10-29T01:23:20.777Z,62.20
2017-10-29T01:25:48.271Z,62.20
2017-10-29T01:28:15.786Z,62.10
2017-10-29T01:30:44.055Z,62.10
2017-10-29T01:33:11.585Z,62.10
2017-10-29T01:35:39.079Z,62.00
2017-10-29T01:38:06.594Z,62.20
2017-10-29T01:40:34.090Z,62.10
2017-10-29T01:43:01.616Z,62.10
2017-10-29T01:45:29.127Z,62.40
2017-10-29T01:47:57.417Z,62.20
2017-10-29T01:50:24.931Z,62.20
2017-10-29T01:52:52.859Z,62.20
2017-10-29T01:55:20.354Z,62.10
2017-10-29T01:57:47.851Z,62.20
2017-10-29T02:00:15.355Z,62.30
2017-10-29T02:02:42.854Z,62.40
2017-10-29T02:05:11.121Z,62.30
2017-10-29T02:07:39.384Z,63.10
2017-10-29T02:10:06.874Z,62.40
2017-10-29T02:12:34.369Z,62.50
2017-10-29T02:15:02.842Z,62.40
2017-10-29T02:17:30.342Z,62.40
2017-10-29T02:19:58.606Z,62.30
2017-10-29T02:22:26.903Z,62.40
2017-10-29T02:24:55.181Z,62.30
2017-10-29T02:27:23.657Z,62.30
2017-10-29T02:29:51.922Z,62.50
2017-10-29T02:32:20.189Z,62.40
2017-10-29T02:34:47.694Z,62.30
2017-10-29T02:37:15.193Z,62.40
2017-10-29T02:39:42.686Z,62.20
2017-10-29T02:42:10.194Z,62.20
2017-10-29T02:44:37.698Z,62.20
2017-10-29T02:47:05.195Z,62.10
2017-10-29T02:49:32.705Z,62.40
2017-10-29T02:52:00.974Z,62.40
2017-10-29T02:54:29.246Z,62.30
2017-10-29T02:56:57.540Z,62.20
2017-10-29T02:59:25.040Z,62.10
2017-10-29T03:01:52.569Z,62.50
2017-10-29T03:04:21.030Z,62.40
2017-10-29T03:06:48.545Z,62.40
2017-10-29T03:09:16.042Z,62.20
2017-10-29T03:11:45.840Z,62.40
2017-10-29T03:14:15.050Z,62.40
2017-10-29T03:16:42.572Z,62.30
2017-10-29T03:19:11.781Z,62.30
2017-10-29T03:21:41.013Z,62.20
2017-10-29T03:24:08.508Z,62.20
2017-10-29T03:26:36.038Z,62.30
2017-10-29T03:29:03.540Z,62.40
2017-10-29T03:31:31.069Z,62.30
2017-10-29T03:33:58.569Z,62.40
2017-10-29T03:36:26.854Z,62.30
2017-10-29T03:38:55.114Z,62.50
2017-10-29T03:41:23.397Z,62.40
2017-10-29T03:43:51.666Z,62.30
2017-10-29T03:46:19.962Z,62.40
2017-10-29T03:48:47.471Z,62.30
2017-10-29T03:51:14.990Z,62.50
2017-10-29T03:53:43.462Z,62.30
2017-10-29T03:56:10.979Z,62.30
2017-10-29T03:58:39.266Z,62.30
2017-10-29T04:01:06.786Z,62.20
2017-10-29T04:03:35.256Z,62.30
2017-10-29T04:06:02.781Z,62.40
2017-10-29T04:08:30.302Z,62.40
2017-10-29T04:10:57.831Z,62.20
2017-10-29T04:13:25.325Z,62.40
2017-10-29T04:15:53.620Z,62.10
2017-10-29T04:18:21.914Z,62.30
2017-10-29T04:20:49.442Z,62.30
2017-10-29T04:23:17.708Z,62.20
2017-10-29T04:25:46.178Z,62.10
2017-10-29T04:28:13.683Z,62.30
2017-10-29T04:30:41.210Z,62.20
2017-10-29T04:33:09.473Z,62.30
2017-10-29T04:35:36.999Z,62.30
2017-10-29T04:38:04.494Z,62.20
2017-10-29T04:40:32.791Z,62.70
2017-10-29T04:43:01.060Z,62.00
2017-10-29T04:45:31.287Z,62.00
2017-10-29T04:47:59.554Z,61.70
2017-10-29T04:50:27.842Z,61.90
2017-10-29T04:52:55.342Z,61.90
2017-10-29T04:55:22.872Z,62.20
2017-10-29T04:57:50.374Z,61.70
2017-10-29T08:30:49.250Z,62.30
2017-10-29T08:33:16.799Z,62.10
2017-10-29T08:35:44.332Z,61.80
2017-10-29T08:38:11.835Z,61.80
2017-10-29T08:40:39.358Z,61.70
2017-10-29T08:43:06.867Z,61.90
2017-10-29T08:45:35.165Z,62.30
2017-10-29T09:05:27.720Z,61.40
2017-10-29T09:07:55.243Z,61.30
2017-10-29T09:10:23.546Z,61.30
2017-10-29T09:12:51.057Z,61.30
2017-10-29T09:15:18.590Z,61.40
2017-10-29T09:17:46.114Z,61.20
2017-10-29T09:20:13.641Z,61.30
2017-10-29T09:22:41.161Z,61.30
2017-10-29T09:25:08.706Z,61.30
2017-10-29T09:27:36.212Z,61.20
2017-10-29T09:30:03.746Z,61.20
2017-10-29T09:32:31.250Z,61.30
2017-10-29T09:34:58.778Z,61.30
2017-10-29T09:37:27.230Z,61.30
2017-10-29T09:39:54.766Z,61.20
2017-10-29T09:42:22.278Z,61.30
2017-10-29T09:44:49.811Z,61.10
2017-10-29T09:47:17.341Z,61.20
2017-10-29T09:49:46.810Z,61.30
2017-10-29T09:52:15.089Z,61.20
2017-10-29T09:54:43.382Z,61.30
2017-10-29T09:57:10.915Z,61.30
2017-10-29T09:59:39.219Z,61.70
2017-10-29T10:02:06.726Z,61.60
2017-10-29T10:04:36.195Z,61.40
2017-10-29T10:07:03.754Z,61.30
2017-10-29T10:09:31.273Z,61.20
2017-10-29T10:11:59.568Z,61.40
2017-10-29T10:14:27.078Z,61.30
2017-10-29T10:16:54.591Z,61.30
2017-10-29T10:19:22.143Z,61.30
2017-10-29T10:21:49.652Z,61.20
2017-10-29T10:24:17.188Z,61.20
2017-10-29T10:26:44.838Z,61.20
2017-10-29T10:29:12.795Z,61.30
2017-10-29T10:31:40.865Z,61.20
2017-10-29T10:34:09.805Z,61.30
2017-10-29T10:36:37.410Z,61.20
2017-10-29T10:39:05.020Z,61.40
2017-10-29T10:41:33.363Z,61.30
2017-10-29T10:44:00.935Z,61.30
2017-10-29T10:46:29.135Z,61.20
2017-10-29T10:48:57.406Z,61.30
2017-10-29T10:51:25.695Z,61.20
2017-10-29T10:53:55.133Z,61.40
2017-10-29T10:56:22.641Z,61.30
2017-10-29T10:58:51.432Z,61.30
2017-10-29T11:01:19.956Z,61.40
2017-10-29T11:03:47.761Z,61.40
2017-10-29T11:06:16.315Z,61.40
2017-10-29T11:08:44.370Z,61.40
2017-10-29T11:11:12.339Z,61.30
2017-10-29T11:13:40.612Z,61.20
2017-10-29T11:16:08.685Z,61.30
2017-10-29T11:18:38.801Z,61.20
2017-10-29T11:21:06.881Z,61.20
2017-10-29T11:23:35.431Z,61.30
2017-10-29T11:26:03.630Z,61.30
2017-10-29T11:28:34.665Z,61.50
2017-10-29T11:31:03.043Z,61.40
2017-10-29T11:33:31.117Z,61.30
2017-10-29T11:35:59.390Z,61.30
2017-10-29T11:38:27.562Z,61.30
2017-10-29T11:40:55.772Z,61.30
2017-10-29T11:43:24.635Z,61.20
2017-10-29T11:45:52.591Z,61.20
2017-10-29T11:48:20.753Z,61.20
2017-10-29T11:50:48.735Z,61.20
2017-10-29T11:53:16.678Z,61.10
2017-10-29T11:55:44.466Z,61.10
2017-10-29T11:58:12.026Z,61.30
2017-10-29T12:00:39.627Z,61.20
2017-10-29T12:03:07.924Z,61.30
2017-10-29T12:05:36.193Z,61.20
2017-10-29T12:08:04.473Z,61.20
2017-10-29T12:10:33.709Z,61.10
2017-10-29T12:13:01.234Z,61.20
2017-10-29T12:15:28.750Z,61.30
2017-10-29T12:17:56.313Z,61.20
2017-10-29T12:20:24.772Z,61.20
2017-10-29T12:22:52.295Z,61.20
2017-10-29T12:25:19.850Z,61.10
2017-10-29T12:27:47.366Z,61.10
2017-10-29T12:30:14.866Z,61.00
2017-10-29T12:32:43.362Z,61.10
2017-10-29T12:35:10.961Z,61.00
2017-10-29T12:37:39.266Z,61.00
2017-10-29T12:40:08.903Z,61.00
2017-10-29T12:42:37.279Z,60.90
2017-10-29T12:45:05.556Z,60.90
2017-10-29T12:47:34.616Z,60.80
2017-10-29T12:50:03.819Z,60.80
2017-10-29T12:52:32.119Z,60.80
2017-10-29T12:54:59.622Z,60.80
2017-10-29T12:57:27.545Z,60.80
2017-10-29T12:59:55.513Z,60.80
2017-10-29T13:02:23.585Z,60.80
2017-10-29T13:04:52.650Z,60.80
2017-10-29T13:07:21.156Z,60.80
2017-10-29T13:09:49.323Z,60.90
2017-10-29T13:12:19.446Z,60.90
2017-10-29T13:14:47.414Z,60.90
2017-10-29T13:17:15.383Z,60.90
2017-10-29T13:19:44.067Z,61.00
2017-10-29T13:22:12.141Z,60.80
2017-10-29T13:24:41.130Z,61.00
2017-10-29T13:27:09.098Z,61.00
2017-10-29T13:29:38.090Z,61.00
2017-10-29T13:32:07.180Z,60.80
2017-10-29T13:34:35.252Z,61.00
2017-10-29T13:37:03.299Z,61.00
2017-10-29T13:39:31.301Z,61.00
2017-10-29T13:41:59.262Z,61.00
2017-10-29T13:44:27.227Z,60.80
2017-10-29T13:46:56.217Z,61.00
2017-10-29T13:49:24.022Z,61.10
2017-10-29T13:51:51.959Z,61.00
2017-10-29T13:54:20.946Z,61.00
2017-10-29T13:56:48.704Z,61.10
2017-10-29T13:59:18.214Z,61.20
2017-10-29T14:01:46.071Z,61.10
2017-10-29T14:04:15.280Z,60.90
2017-10-29T14:06:43.337Z,61.00
2017-10-29T14:09:12.637Z,61.00
2017-10-29T14:11:40.727Z,61.10
2017-10-29T14:14:09.596Z,61.10
2017-10-29T14:16:37.875Z,61.10
2017-10-29T14:19:07.990Z,61.00
2017-10-29T14:21:37.846Z,60.90
2017-10-29T14:24:06.996Z,61.00
2017-10-29T14:26:35.173Z,60.80
2017-10-29T14:29:04.033Z,61.00
2017-10-29T14:31:32.232Z,60.80
2017-10-29T14:34:00.202Z,61.00
2017-10-29T14:36:28.373Z,60.90
2017-10-29T14:38:56.647Z,60.70
2017-10-29T14:41:25.639Z,60.70
2017-10-29T14:43:53.826Z,60.50
2017-10-29T14:46:23.214Z,60.80
2017-10-29T14:48:53.024Z,61.00
2017-10-29T14:51:21.093Z,61.00
2017-10-29T14:53:49.061Z,60.80
2017-10-29T14:56:17.028Z,60.70
2017-10-29T14:58:45.098Z,60.70
2017-10-29T15:01:13.172Z,60.70
2017-10-29T15:03:42.335Z,60.50
2017-10-29T15:06:10.142Z,61.00
2017-10-29T15:08:37.709Z,61.30
2017-10-29T15:11:05.213Z,60.80
2017-10-29T15:13:33.477Z,61.00
2017-10-29T15:16:01.772Z,60.70
2017-10-29T15:18:29.297Z,60.70
2017-10-29T15:20:56.806Z,60.50
2017-10-29T15:23:24.325Z,60.60
2017-10-29T15:25:52.597Z,60.60
2017-10-29T15:28:20.886Z,60.70
2017-10-29T15:30:49.154Z,60.60
2017-10-29T15:33:17.450Z,60.50
2017-10-29T15:35:44.941Z,60.50
2017-10-29T15:38:12.449Z,60.50
2017-10-29T15:40:40.738Z,60.60
2017-10-29T15:43:08.241Z,60.60
2017-10-29T15:45:35.771Z,60.60
2017-10-29T15:48:03.270Z,60.70
2017-10-29T15:50:31.726Z,60.70
2017-10-29T15:52:59.247Z,60.80
2017-10-29T15:55:26.758Z,60.60
2017-10-29T15:57:54.291Z,60.60
2017-10-29T16:00:21.794Z,60.70
2017-10-29T16:02:50.086Z,60.40
2017-10-29T16:05:17.586Z,60.40
2017-10-29T16:07:45.098Z,60.50
2017-10-29T16:10:13.627Z,60.50
2017-10-29T16:12:41.137Z,60.40
2017-10-29T16:15:08.671Z,60.50
2017-10-29T16:17:36.939Z,60.70
2017-10-29T16:20:04.435Z,60.70
2017-10-29T16:22:31.958Z,60.60
2017-10-29T16:24:59.465Z,60.60
2017-10-29T16:27:26.985Z,60.70
2017-10-29T16:29:55.274Z,60.60
2017-10-29T16:32:22.795Z,61.20
2017-10-29T16:34:50.322Z,60.60
2017-10-29T16:37:17.834Z,60.70
2017-10-29T16:39:46.126Z,60.70
2017-10-29T16:42:14.582Z,60.70
2017-10-29T16:44:42.869Z,60.60
2017-10-29T16:47:11.133Z,60.40
2017-10-29T16:49:39.398Z,60.50
2017-10-29T16:52:06.921Z,60.50
2017-10-29T16:54:34.415Z,60.60
2017-10-29T16:57:02.708Z,60.70
2017-10-29T16:59:30.988Z,60.50
2017-10-29T17:01:58.506Z,60.50
2017-10-29T17:04:26.013Z,60.70
2017-10-29T17:06:53.534Z,60.70
2017-10-29T17:09:21.084Z,60.60
2017-10-29T17:11:48.590Z,60.70
2017-10-29T17:14:16.120Z,60.60
2017-10-29T17:16:43.630Z,60.50
2017-10-29T17:19:11.130Z,60.70
2017-10-29T17:21:40.373Z,60.60
2017-10-29T17:24:07.874Z,60.60
2017-10-29T17:26:35.391Z,60.50
2017-10-29T17:29:02.898Z,60.50
2017-10-29T17:31:31.192Z,60.60
2017-10-29T17:33:58.714Z,60.60
2017-10-29T17:36:26.237Z,60.50
2017-10-29T17:38:53.771Z,60.70
2017-10-29T17:41:21.312Z,60.50
2017-10-29T17:43:51.555Z,60.50
2017-10-29T17:46:19.053Z,60.60
2017-10-29T17:48:46.554Z,60.50
2017-10-29T17:51:16.074Z,60.40
2017-10-29T17:53:43.594Z,60.50
2017-10-29T17:56:11.886Z,60.00
2017-10-29T17:58:39.391Z,60.50
2017-10-29T18:01:07.858Z,60.60
2017-10-29T18:03:35.389Z,60.60
2017-10-29T18:06:02.901Z,60.50
2017-10-29T18:08:30.435Z,60.50
2017-10-29T18:10:57.940Z,60.50
2017-10-29T18:13:26.209Z,60.50
2017-10-29T18:15:54.936Z,60.50
2017-10-29T18:18:22.430Z,60.40
2017-10-29T18:20:51.486Z,60.20
2017-10-29T18:23:18.990Z,60.90
2017-10-29T18:25:46.492Z,60.30
2017-10-29T18:28:15.989Z,60.50
2017-10-29T18:30:43.496Z,60.20
2017-10-29T18:33:11.035Z,60.50
2017-10-29T18:35:38.537Z,60.50
2017-10-29T18:38:08.779Z,60.50
2017-10-29T18:40:36.299Z,60.50
2017-10-29T18:43:03.798Z,60.40
2017-10-29T18:45:31.318Z,60.30
2017-10-29T18:47:58.819Z,60.50
2017-10-29T18:50:28.336Z,60.60
2017-10-29T18:52:55.834Z,60.50
2017-10-29T18:55:23.326Z,60.30
2017-10-29T18:57:50.859Z,61.20
2017-10-29T19:00:19.137Z,60.30
2017-10-29T19:02:47.429Z,60.30
2017-10-29T19:05:14.934Z,60.30
2017-10-29T19:07:42.430Z,60.40
2017-10-29T19:10:10.726Z,60.10
2017-10-29T19:12:39.182Z,60.20
2017-10-29T19:15:07.469Z,60.50
2017-10-29T19:17:35.016Z,60.30
2017-10-29T19:20:04.234Z,60.30
2017-10-29T19:22:31.769Z,60.30
2017-10-29T19:24:59.279Z,60.20
2017-10-29T19:27:27.125Z,60.30
2017-10-29T19:29:54.629Z,60.20
2017-10-29T19:32:22.901Z,59.70
2017-10-29T19:34:50.427Z,60.20
2017-10-29T19:37:17.935Z,60.20
2017-10-29T19:39:46.226Z,60.30
2017-10-29T19:42:13.733Z,60.30
2017-10-29T19:44:41.227Z,60.30
2017-10-29T19:47:09.509Z,60.30
2017-10-29T19:49:37.974Z,60.30
2017-10-29T19:52:06.272Z,60.30
2017-10-29T19:54:33.783Z,60.30
2017-10-29T19:57:01.289Z,60.30
2017-10-29T19:59:28.814Z,60.30
2017-10-29T20:01:56.318Z,60.10
2017-10-29T20:04:23.844Z,60.30
2017-10-29T20:06:52.139Z,60.20
2017-10-29T20:09:19.642Z,60.20
2017-10-29T20:11:47.168Z,60.20
2017-10-29T20:14:14.686Z,60.20
2017-10-29T20:16:42.970Z,60.40
2017-10-29T20:19:11.234Z,60.30
2017-10-29T20:21:39.497Z,60.40
2017-10-29T20:24:07.023Z,60.30
2017-10-29T20:26:34.561Z,60.40
2017-10-29T20:29:02.086Z,60.30
2017-10-29T20:31:30.382Z,60.30
2017-10-29T20:33:57.893Z,60.20
2017-10-29T20:36:25.417Z,60.40
2017-10-29T20:38:52.932Z,60.40
2017-10-29T20:41:21.243Z,60.20
2017-10-29T20:43:48.737Z,60.20
2017-10-29T20:46:17.221Z,60.30
2017-10-29T20:48:44.742Z,60.30
2017-10-29T20:51:12.259Z,60.40
2017-10-29T20:53:40.553Z,60.20
2017-10-29T20:56:08.050Z,60.20
2017-10-29T20:58:35.551Z,60.20
2017-10-29T21:01:03.850Z,60.30
2017-10-29T21:03:31.365Z,60.30
2017-10-29T21:06:00.831Z,60.30
2017-10-29T21:08:28.321Z,60.10
2017-10-29T21:10:55.821Z,60.10
2017-10-29T21:13:23.335Z,60.30
2017-10-29T21:15:50.833Z,60.20
2017-10-29T21:18:18.362Z,60.30
2017-10-29T21:20:46.628Z,60.20
2017-10-29T21:23:14.133Z,60.20
2017-10-29T21:25:41.653Z,60.30
2017-10-29T21:28:10.881Z,60.20
2017-10-29T21:30:38.410Z,60.20
2017-10-29T21:33:06.684Z,60.30
2017-10-29T21:35:34.960Z,60.20
2017-10-29T21:38:03.250Z,60.20
2017-10-29T21:40:30.754Z,60.20
2017-10-29T21:43:00.090Z,60.10
2017-10-29T21:45:28.367Z,60.30
2017-10-29T21:47:55.877Z,60.30
2017-10-29T21:50:23.403Z,60.20
2017-10-29T21:52:50.906Z,60.30
2017-10-29T22:12:37.433Z,60.20
2017-10-29T22:15:04.947Z,60.20
2017-10-29T22:17:32.479Z,60.30
2017-10-29T22:19:59.979Z,60.50
2017-10-29T22:22:27.483Z,60.50
2017-10-29T22:24:55.011Z,60.40
2017-10-29T22:27:22.510Z,60.30
2017-10-29T22:29:50.038Z,60.40
2017-10-29T22:32:18.302Z,60.50
2017-10-29T22:34:45.801Z,60.50
2017-10-29T22:37:13.330Z,60.50
2017-10-29T22:39:41.593Z,60.40
2017-10-29T22:42:09.109Z,60.40
2017-10-29T22:44:36.618Z,60.50
2017-10-29T22:47:04.906Z,60.70
2017-10-29T23:06:53.064Z,60.50
2017-10-29T23:09:22.429Z,60.50
2017-10-29T23:11:49.929Z,60.40
2017-10-29T23:14:17.457Z,60.40
2017-10-29T23:16:45.734Z,60.40
2017-10-29T23:19:14.069Z,60.40
2017-10-29T23:21:42.572Z,60.30
2017-10-29T23:24:10.107Z,60.30
2017-10-29T23:26:37.845Z,60.30
2017-10-29T23:29:06.746Z,60.20
2017-10-29T23:31:34.654Z,60.20
2017-10-29T23:34:03.383Z,60.20
2017-10-29T23:36:31.555Z,60.20
2017-10-29T23:38:59.729Z,60.20
2017-10-29T23:41:27.696Z,60.10
2017-10-29T23:43:55.665Z,60.10
2017-10-29T23:46:23.576Z,60.10
2017-10-29T23:48:51.323Z,60.10
2017-10-29T23:51:18.823Z,60.10
2017-10-29T23:53:46.318Z,60.00
2017-10-29T23:56:15.796Z,60.10
2017-10-29T23:58:43.326Z,60.10
